sensor_id;sensor_type;location;lat;lon;timestamp;P1;durP1;ratioP1;P2;durP2;ratioP2
5923;SDS011;2987;50.884;14.818;2023-02-28T00:01:20;29.93;;;15.60;;
5923;SDS011;2987;50.884;14.818;2023-02-28T00:03:46;29.63;;;14.87;;
5923;SDS011;2987;50.884;14.818;2023-02-28T00:06:12;29.13;;;15.33;;
5923;SDS011;2987;50.884;14.818;2023-02-28T00:08:39;34.07;;;14.60;;
5923;SDS011;2987;50.884;14.818;2023-02-28T00:11:06;22.40;;;13.40;;
5923;SDS011;2987;50.884;14.818;2023-02-28T00:13:35;26.47;;;14.50;;
5923;SDS011;2987;50.884;14.818;2023-02-28T00:16:05;27.67;;;14.73;;
5923;SDS011;2987;50.884;14.818;2023-02-28T00:18:35;29.70;;;14.47;;
5923;SDS011;2987;50.884;14.818;2023-02-28T00:21:02;27.33;;;13.80;;
5923;SDS011;2987;50.884;14.818;2023-02-28T00:23:28;35.27;;;15.37;;
5923;SDS011;2987;50.884;14.818;2023-02-28T00:25:55;29.83;;;15.27;;
5923;SDS011;2987;50.884;14.818;2023-02-28T00:28:21;28.07;;;15.43;;
5923;SDS011;2987;50.884;14.818;2023-02-28T00:30:48;30.40;;;14.83;;
5923;SDS011;2987;50.884;14.818;2023-02-28T00:33:14;29.40;;;14.67;;
5923;SDS011;2987;50.884;14.818;2023-02-28T00:35:40;26.90;;;14.50;;
5923;SDS011;2987;50.884;14.818;2023-02-28T00:38:08;28.57;;;14.30;;
5923;SDS011;2987;50.884;14.818;2023-02-28T00:40:34;27.03;;;14.90;;
5923;SDS011;2987;50.884;14.818;2023-02-28T00:43:00;23.27;;;14.20;;
5923;SDS011;2987;50.884;14.818;2023-02-28T00:45:26;27.83;;;14.53;;
5923;SDS011;2987;50.884;14.818;2023-02-28T00:47:52;26.13;;;14.63;;
5923;SDS011;2987;50.884;14.818;2023-02-28T00:50:19;28.20;;;15.13;;
5923;SDS011;2987;50.884;14.818;2023-02-28T00:52:46;25.73;;;13.73;;
5923;SDS011;2987;50.884;14.818;2023-02-28T00:55:13;31.03;;;15.33;;
5923;SDS011;2987;50.884;14.818;2023-02-28T00:57:40;34.00;;;15.10;;
5923;SDS011;2987;50.884;14.818;2023-02-28T01:00:06;27.03;;;14.27;;
5923;SDS011;2987;50.884;14.818;2023-02-28T01:02:33;29.57;;;14.87;;
5923;SDS011;2987;50.884;14.818;2023-02-28T01:04:59;28.50;;;13.80;;
5923;SDS011;2987;50.884;14.818;2023-02-28T01:07:28;24.97;;;13.43;;
5923;SDS011;2987;50.884;14.818;2023-02-28T01:09:56;29.93;;;14.87;;
5923;SDS011;2987;50.884;14.818;2023-02-28T01:12:24;36.40;;;15.10;;
5923;SDS011;2987;50.884;14.818;2023-02-28T01:14:50;29.60;;;15.23;;
5923;SDS011;2987;50.884;14.818;2023-02-28T01:17:16;29.67;;;15.53;;
5923;SDS011;2987;50.884;14.818;2023-02-28T01:19:42;32.63;;;15.80;;
5923;SDS011;2987;50.884;14.818;2023-02-28T01:22:09;29.93;;;14.77;;
5923;SDS011;2987;50.884;14.818;2023-02-28T01:24:35;32.57;;;14.73;;
5923;SDS011;2987;50.884;14.818;2023-02-28T01:27:03;29.73;;;15.07;;
5923;SDS011;2987;50.884;14.818;2023-02-28T01:29:29;27.93;;;15.13;;
5923;SDS011;2987;50.884;14.818;2023-02-28T01:31:55;28.17;;;14.63;;
5923;SDS011;2987;50.884;14.818;2023-02-28T01:34:22;31.20;;;15.73;;
5923;SDS011;2987;50.884;14.818;2023-02-28T01:36:50;28.00;;;15.00;;
5923;SDS011;2987;50.884;14.818;2023-02-28T01:39:18;27.53;;;14.80;;
5923;SDS011;2987;50.884;14.818;2023-02-28T01:41:44;27.57;;;15.63;;
5923;SDS011;2987;50.884;14.818;2023-02-28T01:49:42;28.03;;;14.43;;
5923;SDS011;2987;50.884;14.818;2023-02-28T01:52:08;26.57;;;15.47;;
5923;SDS011;2987;50.884;14.818;2023-02-28T01:57:09;31.80;;;16.47;;
5923;SDS011;2987;50.884;14.818;2023-02-28T01:59:38;36.80;;;19.10;;
5923;SDS011;2987;50.884;14.818;2023-02-28T02:02:12;36.27;;;18.00;;
5923;SDS011;2987;50.884;14.818;2023-02-28T02:04:41;47.50;;;22.27;;
5923;SDS011;2987;50.884;14.818;2023-02-28T02:07:26;43.00;;;20.43;;
5923;SDS011;2987;50.884;14.818;2023-02-28T02:10:02;38.43;;;18.93;;
5923;SDS011;2987;50.884;14.818;2023-02-28T02:12:52;37.47;;;18.03;;
5923;SDS011;2987;50.884;14.818;2023-02-28T02:15:46;40.03;;;17.90;;
5923;SDS011;2987;50.884;14.818;2023-02-28T02:29:36;22.57;;;13.83;;
5923;SDS011;2987;50.884;14.818;2023-02-28T02:32:27;24.53;;;13.10;;
5923;SDS011;2987;50.884;14.818;2023-02-28T02:40:38;19.77;;;12.90;;
5923;SDS011;2987;50.884;14.818;2023-02-28T02:45:55;28.30;;;13.37;;
5923;SDS011;2987;50.884;14.818;2023-02-28T02:48:29;22.57;;;12.70;;
5923;SDS011;2987;50.884;14.818;2023-02-28T02:50:59;21.60;;;12.17;;
5923;SDS011;2987;50.884;14.818;2023-02-28T02:53:32;23.87;;;12.70;;
5923;SDS011;2987;50.884;14.818;2023-02-28T02:56:02;24.50;;;12.90;;
5923;SDS011;2987;50.884;14.818;2023-02-28T02:58:33;25.57;;;13.10;;
5923;SDS011;2987;50.884;14.818;2023-02-28T03:01:10;23.43;;;12.73;;
5923;SDS011;2987;50.884;14.818;2023-02-28T03:03:40;22.97;;;12.50;;
5923;SDS011;2987;50.884;14.818;2023-02-28T03:06:07;22.80;;;12.13;;
5923;SDS011;2987;50.884;14.818;2023-02-28T03:08:34;25.07;;;12.80;;
5923;SDS011;2987;50.884;14.818;2023-02-28T03:11:05;20.13;;;12.07;;
5923;SDS011;2987;50.884;14.818;2023-02-28T03:13:49;25.80;;;13.33;;
5923;SDS011;2987;50.884;14.818;2023-02-28T03:32:33;24.67;;;13.23;;
5923;SDS011;2987;50.884;14.818;2023-02-28T03:35:10;21.57;;;12.90;;
5923;SDS011;2987;50.884;14.818;2023-02-28T03:37:48;22.43;;;13.10;;
5923;SDS011;2987;50.884;14.818;2023-02-28T03:40:21;20.03;;;12.00;;
5923;SDS011;2987;50.884;14.818;2023-02-28T03:42:52;24.37;;;13.23;;
5923;SDS011;2987;50.884;14.818;2023-02-28T03:45:25;27.97;;;13.73;;
5923;SDS011;2987;50.884;14.818;2023-02-28T03:50:44;23.13;;;13.63;;
5923;SDS011;2987;50.884;14.818;2023-02-28T03:53:14;26.70;;;14.10;;
5923;SDS011;2987;50.884;14.818;2023-02-28T04:01:00;24.77;;;13.63;;
5923;SDS011;2987;50.884;14.818;2023-02-28T04:03:49;24.67;;;13.27;;
5923;SDS011;2987;50.884;14.818;2023-02-28T04:06:17;25.17;;;14.37;;
5923;SDS011;2987;50.884;14.818;2023-02-28T04:08:45;26.97;;;14.27;;
5923;SDS011;2987;50.884;14.818;2023-02-28T04:11:16;27.97;;;13.57;;
5923;SDS011;2987;50.884;14.818;2023-02-28T04:13:46;27.77;;;13.73;;
5923;SDS011;2987;50.884;14.818;2023-02-28T04:16:12;24.10;;;13.23;;
5923;SDS011;2987;50.884;14.818;2023-02-28T04:18:38;29.43;;;14.13;;
5923;SDS011;2987;50.884;14.818;2023-02-28T04:21:05;24.17;;;13.63;;
5923;SDS011;2987;50.884;14.818;2023-02-28T04:23:32;26.90;;;14.43;;
5923;SDS011;2987;50.884;14.818;2023-02-28T04:25:58;20.10;;;13.40;;
5923;SDS011;2987;50.884;14.818;2023-02-28T04:28:24;29.87;;;13.83;;
5923;SDS011;2987;50.884;14.818;2023-02-28T04:30:55;26.50;;;13.73;;
5923;SDS011;2987;50.884;14.818;2023-02-28T04:33:23;27.37;;;14.10;;
5923;SDS011;2987;50.884;14.818;2023-02-28T04:35:57;23.23;;;12.80;;
5923;SDS011;2987;50.884;14.818;2023-02-28T04:38:25;23.97;;;13.87;;
5923;SDS011;2987;50.884;14.818;2023-02-28T04:40:51;23.73;;;13.57;;
5923;SDS011;2987;50.884;14.818;2023-02-28T04:43:17;24.67;;;13.57;;
5923;SDS011;2987;50.884;14.818;2023-02-28T04:45:46;26.30;;;13.97;;
5923;SDS011;2987;50.884;14.818;2023-02-28T04:48:12;26.80;;;13.60;;
5923;SDS011;2987;50.884;14.818;2023-02-28T04:50:38;28.37;;;14.30;;
5923;SDS011;2987;50.884;14.818;2023-02-28T04:53:04;26.37;;;13.53;;
5923;SDS011;2987;50.884;14.818;2023-02-28T04:55:30;25.63;;;12.67;;
5923;SDS011;2987;50.884;14.818;2023-02-28T04:57:56;25.17;;;13.63;;
5923;SDS011;2987;50.884;14.818;2023-02-28T05:00:23;27.13;;;14.30;;
5923;SDS011;2987;50.884;14.818;2023-02-28T05:02:49;21.30;;;12.70;;
5923;SDS011;2987;50.884;14.818;2023-02-28T05:05:15;23.07;;;13.27;;
5923;SDS011;2987;50.884;14.818;2023-02-28T05:07:43;25.23;;;13.20;;
5923;SDS011;2987;50.884;14.818;2023-02-28T05:10:10;24.33;;;13.20;;
5923;SDS011;2987;50.884;14.818;2023-02-28T05:12:37;25.43;;;13.53;;
5923;SDS011;2987;50.884;14.818;2023-02-28T05:15:04;21.03;;;12.83;;
5923;SDS011;2987;50.884;14.818;2023-02-28T05:17:30;22.10;;;13.70;;
5923;SDS011;2987;50.884;14.818;2023-02-28T05:19:57;25.57;;;14.20;;
5923;SDS011;2987;50.884;14.818;2023-02-28T05:22:23;27.17;;;13.97;;
5923;SDS011;2987;50.884;14.818;2023-02-28T05:24:49;25.80;;;13.60;;
5923;SDS011;2987;50.884;14.818;2023-02-28T05:27:15;27.40;;;13.07;;
5923;SDS011;2987;50.884;14.818;2023-02-28T05:29:41;36.83;;;17.37;;
5923;SDS011;2987;50.884;14.818;2023-02-28T05:32:11;30.43;;;16.93;;
5923;SDS011;2987;50.884;14.818;2023-02-28T05:34:38;39.07;;;18.07;;
5923;SDS011;2987;50.884;14.818;2023-02-28T05:37:05;35.27;;;17.03;;
5923;SDS011;2987;50.884;14.818;2023-02-28T05:39:32;35.17;;;17.13;;
5923;SDS011;2987;50.884;14.818;2023-02-28T05:41:58;34.27;;;17.33;;
5923;SDS011;2987;50.884;14.818;2023-02-28T05:44:24;31.50;;;16.67;;
5923;SDS011;2987;50.884;14.818;2023-02-28T05:46:50;33.47;;;17.00;;
5923;SDS011;2987;50.884;14.818;2023-02-28T05:49:16;32.87;;;17.30;;
5923;SDS011;2987;50.884;14.818;2023-02-28T05:51:42;36.67;;;17.37;;
5923;SDS011;2987;50.884;14.818;2023-02-28T05:54:08;36.50;;;17.37;;
5923;SDS011;2987;50.884;14.818;2023-02-28T05:56:35;36.07;;;18.80;;
5923;SDS011;2987;50.884;14.818;2023-02-28T05:59:03;40.00;;;19.20;;
5923;SDS011;2987;50.884;14.818;2023-02-28T06:01:31;37.13;;;18.53;;
5923;SDS011;2987;50.884;14.818;2023-02-28T06:04:03;35.27;;;19.27;;
5923;SDS011;2987;50.884;14.818;2023-02-28T06:06:31;33.03;;;18.60;;
5923;SDS011;2987;50.884;14.818;2023-02-28T06:08:59;39.17;;;19.93;;
5923;SDS011;2987;50.884;14.818;2023-02-28T06:11:26;39.07;;;19.83;;
5923;SDS011;2987;50.884;14.818;2023-02-28T06:13:53;34.37;;;19.17;;
5923;SDS011;2987;50.884;14.818;2023-02-28T06:16:20;35.13;;;19.43;;
5923;SDS011;2987;50.884;14.818;2023-02-28T06:18:47;37.33;;;19.10;;
5923;SDS011;2987;50.884;14.818;2023-02-28T06:21:13;30.40;;;17.63;;
5923;SDS011;2987;50.884;14.818;2023-02-28T06:23:39;33.93;;;17.97;;
5923;SDS011;2987;50.884;14.818;2023-02-28T06:26:05;35.57;;;17.80;;
5923;SDS011;2987;50.884;14.818;2023-02-28T06:28:31;31.67;;;17.23;;
5923;SDS011;2987;50.884;14.818;2023-02-28T06:30:57;37.33;;;18.07;;
5923;SDS011;2987;50.884;14.818;2023-02-28T06:33:24;32.83;;;17.87;;
5923;SDS011;2987;50.884;14.818;2023-02-28T06:35:50;31.77;;;17.97;;
5923;SDS011;2987;50.884;14.818;2023-02-28T06:38:17;30.13;;;17.47;;
5923;SDS011;2987;50.884;14.818;2023-02-28T06:40:43;31.03;;;17.27;;
5923;SDS011;2987;50.884;14.818;2023-02-28T06:43:09;32.37;;;18.23;;
5923;SDS011;2987;50.884;14.818;2023-02-28T06:45:43;32.40;;;17.27;;
5923;SDS011;2987;50.884;14.818;2023-02-28T06:48:09;33.60;;;18.83;;
5923;SDS011;2987;50.884;14.818;2023-02-28T06:50:36;35.97;;;18.50;;
5923;SDS011;2987;50.884;14.818;2023-02-28T06:53:02;35.80;;;19.13;;
5923;SDS011;2987;50.884;14.818;2023-02-28T06:55:28;35.60;;;19.17;;
5923;SDS011;2987;50.884;14.818;2023-02-28T06:57:55;37.53;;;19.73;;
5923;SDS011;2987;50.884;14.818;2023-02-28T07:00:21;36.70;;;19.63;;
5923;SDS011;2987;50.884;14.818;2023-02-28T07:02:47;32.10;;;18.40;;
5923;SDS011;2987;50.884;14.818;2023-02-28T07:05:13;27.20;;;16.53;;
5923;SDS011;2987;50.884;14.818;2023-02-28T07:07:39;27.57;;;16.70;;
5923;SDS011;2987;50.884;14.818;2023-02-28T07:10:09;26.43;;;15.63;;
5923;SDS011;2987;50.884;14.818;2023-02-28T07:12:37;27.80;;;15.90;;
5923;SDS011;2987;50.884;14.818;2023-02-28T07:15:04;29.50;;;15.53;;
5923;SDS011;2987;50.884;14.818;2023-02-28T07:17:30;25.50;;;15.33;;
5923;SDS011;2987;50.884;14.818;2023-02-28T07:19:56;24.10;;;15.17;;
5923;SDS011;2987;50.884;14.818;2023-02-28T07:22:22;30.70;;;16.90;;
5923;SDS011;2987;50.884;14.818;2023-02-28T07:24:50;25.53;;;15.93;;
5923;SDS011;2987;50.884;14.818;2023-02-28T07:27:17;26.10;;;14.90;;
5923;SDS011;2987;50.884;14.818;2023-02-28T07:29:49;25.53;;;14.57;;
5923;SDS011;2987;50.884;14.818;2023-02-28T07:32:15;26.70;;;15.43;;
5923;SDS011;2987;50.884;14.818;2023-02-28T07:34:41;26.13;;;14.57;;
5923;SDS011;2987;50.884;14.818;2023-02-28T07:37:07;28.67;;;15.73;;
5923;SDS011;2987;50.884;14.818;2023-02-28T07:39:33;26.03;;;15.20;;
5923;SDS011;2987;50.884;14.818;2023-02-28T07:41:59;24.73;;;14.63;;
5923;SDS011;2987;50.884;14.818;2023-02-28T07:44:29;23.13;;;13.97;;
5923;SDS011;2987;50.884;14.818;2023-02-28T07:46:55;24.90;;;14.77;;
5923;SDS011;2987;50.884;14.818;2023-02-28T07:49:21;25.90;;;15.40;;
5923;SDS011;2987;50.884;14.818;2023-02-28T07:51:47;22.77;;;13.80;;
5923;SDS011;2987;50.884;14.818;2023-02-28T07:54:13;28.23;;;14.93;;
5923;SDS011;2987;50.884;14.818;2023-02-28T07:56:39;25.47;;;14.53;;
5923;SDS011;2987;50.884;14.818;2023-02-28T07:59:05;23.50;;;13.67;;
5923;SDS011;2987;50.884;14.818;2023-02-28T08:01:31;24.53;;;13.93;;
5923;SDS011;2987;50.884;14.818;2023-02-28T08:03:57;21.00;;;13.03;;
5923;SDS011;2987;50.884;14.818;2023-02-28T08:06:24;23.00;;;13.57;;
5923;SDS011;2987;50.884;14.818;2023-02-28T08:08:52;23.93;;;14.00;;
5923;SDS011;2987;50.884;14.818;2023-02-28T08:11:18;22.93;;;13.67;;
5923;SDS011;2987;50.884;14.818;2023-02-28T08:13:44;24.20;;;13.60;;
5923;SDS011;2987;50.884;14.818;2023-02-28T08:16:11;23.50;;;13.67;;
5923;SDS011;2987;50.884;14.818;2023-02-28T08:18:42;23.47;;;13.60;;
5923;SDS011;2987;50.884;14.818;2023-02-28T08:21:09;22.97;;;14.47;;
5923;SDS011;2987;50.884;14.818;2023-02-28T08:23:35;23.33;;;14.23;;
5923;SDS011;2987;50.884;14.818;2023-02-28T08:26:02;23.30;;;14.20;;
5923;SDS011;2987;50.884;14.818;2023-02-28T08:28:29;23.73;;;12.90;;
5923;SDS011;2987;50.884;14.818;2023-02-28T08:30:55;23.67;;;13.63;;
5923;SDS011;2987;50.884;14.818;2023-02-28T08:33:21;24.63;;;13.73;;
5923;SDS011;2987;50.884;14.818;2023-02-28T08:35:48;27.03;;;14.50;;
5923;SDS011;2987;50.884;14.818;2023-02-28T08:38:19;27.67;;;15.43;;
5923;SDS011;2987;50.884;14.818;2023-02-28T08:40:45;23.97;;;13.60;;
5923;SDS011;2987;50.884;14.818;2023-02-28T08:43:11;24.77;;;14.07;;
5923;SDS011;2987;50.884;14.818;2023-02-28T08:45:38;22.23;;;13.70;;
5923;SDS011;2987;50.884;14.818;2023-02-28T08:48:04;24.63;;;14.77;;
5923;SDS011;2987;50.884;14.818;2023-02-28T08:50:30;24.37;;;15.40;;
5923;SDS011;2987;50.884;14.818;2023-02-28T08:52:56;28.13;;;15.77;;
5923;SDS011;2987;50.884;14.818;2023-02-28T08:55:23;25.43;;;14.87;;
5923;SDS011;2987;50.884;14.818;2023-02-28T08:57:49;24.27;;;15.03;;
5923;SDS011;2987;50.884;14.818;2023-02-28T09:00:15;35.17;;;18.27;;
5923;SDS011;2987;50.884;14.818;2023-02-28T09:02:42;29.80;;;18.37;;
5923;SDS011;2987;50.884;14.818;2023-02-28T09:05:09;28.93;;;17.30;;
5923;SDS011;2987;50.884;14.818;2023-02-28T09:07:35;21.53;;;14.17;;
5923;SDS011;2987;50.884;14.818;2023-02-28T09:10:01;29.27;;;14.43;;
5923;SDS011;2987;50.884;14.818;2023-02-28T09:12:28;21.17;;;11.20;;
5923;SDS011;2987;50.884;14.818;2023-02-28T09:15:03;17.90;;;11.20;;
5923;SDS011;2987;50.884;14.818;2023-02-28T09:17:30;15.23;;;9.70;;
5923;SDS011;2987;50.884;14.818;2023-02-28T09:19:57;16.97;;;10.23;;
5923;SDS011;2987;50.884;14.818;2023-02-28T09:22:23;14.27;;;9.20;;
5923;SDS011;2987;50.884;14.818;2023-02-28T09:24:50;16.07;;;8.50;;
5923;SDS011;2987;50.884;14.818;2023-02-28T09:27:16;15.50;;;9.00;;
5923;SDS011;2987;50.884;14.818;2023-02-28T09:29:43;15.23;;;9.13;;
5923;SDS011;2987;50.884;14.818;2023-02-28T09:32:09;17.37;;;9.80;;
5923;SDS011;2987;50.884;14.818;2023-02-28T09:34:35;22.20;;;8.13;;
5923;SDS011;2987;50.884;14.818;2023-02-28T09:37:03;14.53;;;8.17;;
5923;SDS011;2987;50.884;14.818;2023-02-28T09:39:31;18.33;;;9.10;;
5923;SDS011;2987;50.884;14.818;2023-02-28T09:41:57;18.50;;;9.33;;
5923;SDS011;2987;50.884;14.818;2023-02-28T09:44:26;15.33;;;8.10;;
5923;SDS011;2987;50.884;14.818;2023-02-28T09:47:01;22.03;;;8.00;;
5923;SDS011;2987;50.884;14.818;2023-02-28T09:49:49;16.10;;;7.90;;
5923;SDS011;2987;50.884;14.818;2023-02-28T09:52:17;11.27;;;7.20;;
5923;SDS011;2987;50.884;14.818;2023-02-28T09:54:45;18.10;;;7.83;;
5923;SDS011;2987;50.884;14.818;2023-02-28T09:57:32;18.87;;;8.23;;
5923;SDS011;2987;50.884;14.818;2023-02-28T10:02:54;12.47;;;7.43;;
5923;SDS011;2987;50.884;14.818;2023-02-28T10:05:33;15.40;;;7.87;;
5923;SDS011;2987;50.884;14.818;2023-02-28T10:08:08;10.07;;;7.07;;
5923;SDS011;2987;50.884;14.818;2023-02-28T10:10:42;14.13;;;7.30;;
5923;SDS011;2987;50.884;14.818;2023-02-28T10:13:25;8.73;;;6.57;;
5923;SDS011;2987;50.884;14.818;2023-02-28T10:16:04;13.50;;;7.30;;
5923;SDS011;2987;50.884;14.818;2023-02-28T10:18:38;16.23;;;7.10;;
5923;SDS011;2987;50.884;14.818;2023-02-28T10:21:15;11.03;;;6.47;;
5923;SDS011;2987;50.884;14.818;2023-02-28T10:23:49;11.60;;;6.70;;
5923;SDS011;2987;50.884;14.818;2023-02-28T10:26:24;17.17;;;8.30;;
5923;SDS011;2987;50.884;14.818;2023-02-28T10:28:53;11.47;;;7.73;;
5923;SDS011;2987;50.884;14.818;2023-02-28T10:31:19;11.53;;;6.93;;
5923;SDS011;2987;50.884;14.818;2023-02-28T10:33:47;10.67;;;6.97;;
5923;SDS011;2987;50.884;14.818;2023-02-28T10:36:14;12.50;;;7.93;;
5923;SDS011;2987;50.884;14.818;2023-02-28T10:38:43;9.23;;;7.07;;
5923;SDS011;2987;50.884;14.818;2023-02-28T10:41:11;13.10;;;8.40;;
5923;SDS011;2987;50.884;14.818;2023-02-28T10:43:41;10.97;;;7.40;;
5923;SDS011;2987;50.884;14.818;2023-02-28T10:46:13;9.33;;;7.03;;
5923;SDS011;2987;50.884;14.818;2023-02-28T10:49:12;12.23;;;7.63;;
5923;SDS011;2987;50.884;14.818;2023-02-28T10:51:41;8.57;;;6.13;;
5923;SDS011;2987;50.884;14.818;2023-02-28T10:54:16;8.83;;;6.30;;
5923;SDS011;2987;50.884;14.818;2023-02-28T10:56:46;11.90;;;6.73;;
5923;SDS011;2987;50.884;14.818;2023-02-28T10:59:50;13.50;;;7.07;;
5923;SDS011;2987;50.884;14.818;2023-02-28T11:07:54;9.37;;;7.33;;
5923;SDS011;2987;50.884;14.818;2023-02-28T11:10:25;16.30;;;9.07;;
5923;SDS011;2987;50.884;14.818;2023-02-28T11:15:30;10.43;;;6.23;;
5923;SDS011;2987;50.884;14.818;2023-02-28T11:18:01;8.90;;;6.23;;
5923;SDS011;2987;50.884;14.818;2023-02-28T11:20:40;13.67;;;7.37;;
5923;SDS011;2987;50.884;14.818;2023-02-28T11:23:10;11.77;;;7.13;;
5923;SDS011;2987;50.884;14.818;2023-02-28T11:25:39;12.93;;;7.57;;
5923;SDS011;2987;50.884;14.818;2023-02-28T11:28:06;9.90;;;6.73;;
5923;SDS011;2987;50.884;14.818;2023-02-28T11:31:14;11.63;;;7.23;;
5923;SDS011;2987;50.884;14.818;2023-02-28T11:33:45;9.13;;;6.70;;
5923;SDS011;2987;50.884;14.818;2023-02-28T11:36:20;10.67;;;6.67;;
5923;SDS011;2987;50.884;14.818;2023-02-28T11:38:50;10.10;;;7.40;;
5923;SDS011;2987;50.884;14.818;2023-02-28T11:41:28;11.97;;;7.13;;
5923;SDS011;2987;50.884;14.818;2023-02-28T11:46:58;10.03;;;7.13;;
5923;SDS011;2987;50.884;14.818;2023-02-28T11:49:35;8.67;;;6.80;;
5923;SDS011;2987;50.884;14.818;2023-02-28T11:55:16;16.07;;;7.83;;
5923;SDS011;2987;50.884;14.818;2023-02-28T12:00:39;15.10;;;8.23;;
5923;SDS011;2987;50.884;14.818;2023-02-28T12:06:20;14.77;;;7.63;;
5923;SDS011;2987;50.884;14.818;2023-02-28T12:09:12;8.43;;;6.07;;
5923;SDS011;2987;50.884;14.818;2023-02-28T12:11:55;7.67;;;6.07;;
5923;SDS011;2987;50.884;14.818;2023-02-28T12:20:02;11.80;;;6.83;;
5923;SDS011;2987;50.884;14.818;2023-02-28T12:22:52;15.07;;;8.00;;
5923;SDS011;2987;50.884;14.818;2023-02-28T12:25:41;10.10;;;7.13;;
5923;SDS011;2987;50.884;14.818;2023-02-28T12:28:20;13.80;;;7.00;;
5923;SDS011;2987;50.884;14.818;2023-02-28T12:30:54;10.27;;;6.60;;
5923;SDS011;2987;50.884;14.818;2023-02-28T12:33:28;9.97;;;7.10;;
5923;SDS011;2987;50.884;14.818;2023-02-28T12:36:04;13.53;;;7.43;;
5923;SDS011;2987;50.884;14.818;2023-02-28T12:38:53;13.60;;;7.90;;
5923;SDS011;2987;50.884;14.818;2023-02-28T12:44:12;11.30;;;6.93;;
5923;SDS011;2987;50.884;14.818;2023-02-28T12:46:44;9.00;;;6.47;;
5923;SDS011;2987;50.884;14.818;2023-02-28T12:49:23;13.13;;;7.60;;
5923;SDS011;2987;50.884;14.818;2023-02-28T12:51:59;15.00;;;7.63;;
5923;SDS011;2987;50.884;14.818;2023-02-28T12:54:44;11.47;;;8.03;;
5923;SDS011;2987;50.884;14.818;2023-02-28T12:57:22;8.60;;;6.90;;
5923;SDS011;2987;50.884;14.818;2023-02-28T13:00:13;9.10;;;7.23;;
5923;SDS011;2987;50.884;14.818;2023-02-28T13:02:50;18.67;;;10.53;;
5923;SDS011;2987;50.884;14.818;2023-02-28T13:10:47;12.83;;;8.23;;
5923;SDS011;2987;50.884;14.818;2023-02-28T13:13:21;12.40;;;7.40;;
5923;SDS011;2987;50.884;14.818;2023-02-28T13:15:59;10.93;;;7.37;;
5923;SDS011;2987;50.884;14.818;2023-02-28T13:18:34;11.53;;;7.90;;
5923;SDS011;2987;50.884;14.818;2023-02-28T13:21:09;13.53;;;7.60;;
5923;SDS011;2987;50.884;14.818;2023-02-28T13:24:00;13.00;;;6.90;;
5923;SDS011;2987;50.884;14.818;2023-02-28T13:29:36;14.40;;;8.27;;
5923;SDS011;2987;50.884;14.818;2023-02-28T13:43:25;15.73;;;8.07;;
5923;SDS011;2987;50.884;14.818;2023-02-28T13:46:24;14.77;;;9.43;;
5923;SDS011;2987;50.884;14.818;2023-02-28T13:51:27;9.93;;;8.13;;
5923;SDS011;2987;50.884;14.818;2023-02-28T13:54:18;14.37;;;8.93;;
5923;SDS011;2987;50.884;14.818;2023-02-28T13:57:00;12.93;;;8.50;;
5923;SDS011;2987;50.884;14.818;2023-02-28T13:59:39;11.47;;;8.23;;
5923;SDS011;2987;50.884;14.818;2023-02-28T14:02:48;9.20;;;7.37;;
5923;SDS011;2987;50.884;14.818;2023-02-28T14:05:32;10.97;;;8.07;;
5923;SDS011;2987;50.884;14.818;2023-02-28T14:08:04;17.27;;;10.83;;
5923;SDS011;2987;50.884;14.818;2023-02-28T14:10:36;11.70;;;7.77;;
5923;SDS011;2987;50.884;14.818;2023-02-28T14:13:14;17.10;;;9.03;;
5923;SDS011;2987;50.884;14.818;2023-02-28T14:16:14;14.37;;;10.10;;
5923;SDS011;2987;50.884;14.818;2023-02-28T14:19:02;14.13;;;8.67;;
5923;SDS011;2987;50.884;14.818;2023-02-28T14:21:50;11.43;;;8.77;;
5923;SDS011;2987;50.884;14.818;2023-02-28T14:40:54;18.43;;;10.77;;
5923;SDS011;2987;50.884;14.818;2023-02-28T14:45:52;14.43;;;9.40;;
5923;SDS011;2987;50.884;14.818;2023-02-28T14:48:22;17.70;;;11.83;;
5923;SDS011;2987;50.884;14.818;2023-02-28T14:50:52;26.40;;;10.93;;
5923;SDS011;2987;50.884;14.818;2023-02-28T14:53:22;20.27;;;11.83;;
5923;SDS011;2987;50.884;14.818;2023-02-28T14:55:51;20.53;;;10.07;;
5923;SDS011;2987;50.884;14.818;2023-02-28T14:58:22;19.37;;;11.67;;
5923;SDS011;2987;50.884;14.818;2023-02-28T15:00:51;18.77;;;11.30;;
5923;SDS011;2987;50.884;14.818;2023-02-28T15:03:21;18.97;;;11.23;;
5923;SDS011;2987;50.884;14.818;2023-02-28T15:05:51;17.47;;;11.00;;
5923;SDS011;2987;50.884;14.818;2023-02-28T15:08:19;17.53;;;10.73;;
5923;SDS011;2987;50.884;14.818;2023-02-28T15:10:54;16.67;;;10.47;;
5923;SDS011;2987;50.884;14.818;2023-02-28T15:13:29;23.30;;;12.23;;
5923;SDS011;2987;50.884;14.818;2023-02-28T15:16:19;26.27;;;13.07;;
5923;SDS011;2987;50.884;14.818;2023-02-28T15:18:52;24.17;;;11.50;;
5923;SDS011;2987;50.884;14.818;2023-02-28T15:21:27;17.03;;;11.77;;
5923;SDS011;2987;50.884;14.818;2023-02-28T15:26:32;21.77;;;11.80;;
5923;SDS011;2987;50.884;14.818;2023-02-28T15:29:03;22.87;;;12.40;;
5923;SDS011;2987;50.884;14.818;2023-02-28T15:31:42;18.40;;;11.80;;
5923;SDS011;2987;50.884;14.818;2023-02-28T15:34:12;23.43;;;12.57;;
5923;SDS011;2987;50.884;14.818;2023-02-28T15:36:47;19.07;;;11.23;;
5923;SDS011;2987;50.884;14.818;2023-02-28T15:39:18;21.17;;;11.30;;
5923;SDS011;2987;50.884;14.818;2023-02-28T15:41:47;18.03;;;11.03;;
5923;SDS011;2987;50.884;14.818;2023-02-28T15:44:15;22.97;;;11.57;;
5923;SDS011;2987;50.884;14.818;2023-02-28T15:47:12;23.60;;;13.47;;
5923;SDS011;2987;50.884;14.818;2023-02-28T15:49:46;28.80;;;14.33;;
5923;SDS011;2987;50.884;14.818;2023-02-28T15:52:17;35.67;;;20.07;;
5923;SDS011;2987;50.884;14.818;2023-02-28T15:54:48;43.77;;;21.97;;
5923;SDS011;2987;50.884;14.818;2023-02-28T15:57:17;34.13;;;19.00;;
5923;SDS011;2987;50.884;14.818;2023-02-28T15:59:57;33.67;;;17.20;;
5923;SDS011;2987;50.884;14.818;2023-02-28T16:02:35;27.37;;;14.37;;
5923;SDS011;2987;50.884;14.818;2023-02-28T16:05:18;30.30;;;16.57;;
5923;SDS011;2987;50.884;14.818;2023-02-28T16:07:54;30.10;;;16.83;;
5923;SDS011;2987;50.884;14.818;2023-02-28T16:10:22;24.97;;;14.93;;
5923;SDS011;2987;50.884;14.818;2023-02-28T16:12:53;24.70;;;14.23;;
5923;SDS011;2987;50.884;14.818;2023-02-28T16:15:21;24.43;;;14.30;;
5923;SDS011;2987;50.884;14.818;2023-02-28T16:17:51;42.03;;;22.20;;
5923;SDS011;2987;50.884;14.818;2023-02-28T16:20:21;47.03;;;23.40;;
5923;SDS011;2987;50.884;14.818;2023-02-28T16:22:49;49.63;;;24.03;;
5923;SDS011;2987;50.884;14.818;2023-02-28T16:25:18;48.00;;;26.63;;
5923;SDS011;2987;50.884;14.818;2023-02-28T16:27:48;51.63;;;25.67;;
5923;SDS011;2987;50.884;14.818;2023-02-28T16:30:20;58.80;;;28.83;;
5923;SDS011;2987;50.884;14.818;2023-02-28T16:32:50;60.13;;;29.57;;
5923;SDS011;2987;50.884;14.818;2023-02-28T16:35:18;61.00;;;31.30;;
5923;SDS011;2987;50.884;14.818;2023-02-28T16:37:45;86.67;;;37.70;;
5923;SDS011;2987;50.884;14.818;2023-02-28T16:40:16;100.83;;;43.23;;
